Time;durP1;ratioP1;P1;durP2;ratioP2;P2;SDS_P1;SDS_P2;PMS_P1;PMS_P2;Temp;Humidity;BMP_temperature;BMP_pressure;BME280_temperature;BME280_humidity;BME280_pressure;Samples;Min_cycle;Max_cycle;Signal;HPM_P1;HPM_P2
2021/01/11 00:01:47;;;;;;;8.03;1.90;;;;;;;;;;5041584;28;20218;-67
2021/01/11 00:04:17;;;;;;;1.07;0.63;;;;;;;;;;5042997;28;20226;-61
2021/01/11 00:06:44;;;;;;;0.47;0.47;;;;;;;;;;5041989;28;20201;-63
2021/01/11 00:09:12;;;;;;;0.77;0.57;;;;;;;;;;5041918;28;20704;-63
2021/01/11 00:11:40;;;;;;;0.40;0.33;;;;;;;;;;5043257;28;20552;-61
2021/01/11 00:14:07;;;;;;;0.00;0.00;;;;;;;;;;5041364;28;20187;-62
2021/01/11 00:16:34;;;;;;;0.00;0.00;;;;;;;;;;5041058;28;20183;-61
2021/01/11 00:19:01;;;;;;;0.63;0.63;;;;;;;;;;5041037;28;20190;-65
2021/01/11 00:21:28;;;;;;;0.00;0.00;;;;;;;;;;5033178;28;20198;-63
2021/01/11 00:23:55;;;;;;;0.00;0.00;;;;;;;;;;5041804;28;20275;-68
2021/01/11 00:26:22;;;;;;;0.40;0.40;;;;;;;;;;5040230;28;20234;-66
2021/01/11 00:28:49;;;;;;;0.27;0.27;;;;;;;;;;5039609;28;20233;-62
2021/01/11 00:31:25;;;;;;;0.63;0.63;;;;;;;;;;5042258;28;20186;-66
2021/01/11 00:33:53;;;;;;;3.30;0.70;;;;;;;;;;5042151;28;20187;-64
2021/01/11 00:36:20;;;;;;;4.00;3.70;;;;;;;;;;5038783;28;21237;-68
2021/01/11 00:38:49;;;;;;;0.00;0.00;;;;;;;;;;5039069;28;20285;-65
2021/01/11 14:27:26;;;;;;;0.20;0.20;;;;;;;;;;5089453;27;20683;-62
2021/01/11 14:29:54;;;;;;;0.20;0.20;;;;;;;;;;5093128;28;20218;-66
2021/01/11 14:32:21;;;;;;;3.90;1.47;;;;;;;;;;5096662;28;20174;-62
2021/01/11 14:34:48;;;;;;;7.80;7.20;;;;;;;;;;5089667;27;20184;-63
2021/01/11 14:40:18;;;;;;;0.10;0.10;;;;;;;;;;5115694;28;20218;-61
2021/01/11 14:46:23;;;;;;;4.00;1.07;;;;;;;;;;5116716;28;20216;-60
2021/01/11 14:51:53;;;;;;;0.10;0.10;;;;;;;;;;5158117;27;20238;-60
2021/01/11 14:57:23;;;;;;;1.60;1.50;;;;;;;;;;5156637;27;20182;-60
2021/01/11 15:02:55;;;;;;;0.10;0.10;;;;;;;;;;5158931;27;20179;-61
2021/01/11 15:08:46;;;;;;;0.80;0.80;;;;;;;;;;5160959;27;20705;-61
2021/01/11 15:14:16;;;;;;;0.40;0.17;;;;;;;;;;5158471;27;20197;-61
2021/01/11 15:19:46;;;;;;;0.83;0.63;;;;;;;;;;5157170;27;20179;-61
2021/01/11 15:25:16;;;;;;;1.87;0.40;;;;;;;;;;5155638;27;20207;-61
2021/01/11 15:30:46;;;;;;;0.63;0.50;;;;;;;;;;5135969;27;20649;-61
2021/01/11 15:36:23;;;;;;;0.30;0.10;;;;;;;;;;5128212;28;20274;-61
2021/01/11 15:41:53;;;;;;;1.70;0.60;;;;;;;;;;5120563;27;20187;-62
2021/01/11 15:53:38;;;;;;;0.70;0.70;;;;;;;;;;5121169;28;20277;-60
2021/01/11 15:59:08;;;;;;;0.97;0.27;;;;;;;;;;5107418;22;20245;-67
2021/01/11 16:01:37;;;;;;;0.47;0.20;;;;;;;;;;5040787;28;20267;-67
2021/01/11 16:04:04;;;;;;;0.20;0.20;;;;;;;;;;5044838;28;20188;-68
2021/01/11 16:06:31;;;;;;;0.10;0.10;;;;;;;;;;5043699;28;20538;-67
2021/01/11 16:08:58;;;;;;;1.07;0.97;;;;;;;;;;5043600;28;20254;-68
2021/01/11 16:11:24;;;;;;;21.87;0.73;;;;;;;;;;5043113;28;20183;-67
2021/01/11 16:13:57;;;;;;;0.63;0.40;;;;;;;;;;5045140;28;20179;-68
2021/01/11 16:16:23;;;;;;;0.67;0.23;;;;;;;;;;5041623;28;20188;-68
2021/01/11 16:18:50;;;;;;;0.20;0.20;;;;;;;;;;5044257;28;20210;-68
2021/01/11 16:21:20;;;;;;;0.20;0.20;;;;;;;;;;5044019;28;20191;-67
2021/01/11 16:23:46;;;;;;;0.93;0.30;;;;;;;;;;5049503;28;20199;-67
2021/01/11 16:26:20;;;;;;;0.60;0.60;;;;;;;;;;5046634;28;20261;-67
2021/01/11 16:28:47;;;;;;;1.13;1.03;;;;;;;;;;5042205;28;20403;-67
2021/01/11 16:34:17;;;;;;;0.30;0.30;;;;;;;;;;5045020;28;20573;-66
2021/01/11 16:36:43;;;;;;;0.10;0.10;;;;;;;;;;5037207;28;20203;-66
2021/01/11 16:39:10;;;;;;;0.10;0.10;;;;;;;;;;5038083;28;20191;-66
2021/01/11 16:41:37;;;;;;;1.23;0.50;;;;;;;;;;5043188;28;20195;-66
2021/01/11 16:44:06;;;;;;;0.63;0.63;;;;;;;;;;5041754;28;20187;-66
2021/01/11 16:46:33;;;;;;;2.63;0.40;;;;;;;;;;5034451;28;20988;-66
2021/01/11 16:49:00;;;;;;;0.17;0.17;;;;;;;;;;5037282;28;20197;-66
2021/01/11 16:51:27;;;;;;;0.10;0.10;;;;;;;;;;5037723;28;20194;-67
2021/01/11 16:53:54;;;;;;;0.40;0.40;;;;;;;;;;5042059;28;20179;-66
2021/01/11 16:56:21;;;;;;;0.20;0.20;;;;;;;;;;5041768;28;20191;-66
2021/01/11 16:58:47;;;;;;;0.30;0.30;;;;;;;;;;5044789;28;20227;-70
2021/01/11 17:01:14;;;;;;;0.20;0.20;;;;;;;;;;5043952;28;20187;-70
2021/01/11 17:03:41;;;;;;;1.20;0.47;;;;;;;;;;5042169;28;20674;-71
2021/01/11 17:06:08;;;;;;;4.60;0.77;;;;;;;;;;5045708;28;21246;-70
2021/01/11 17:08:34;;;;;;;3.40;0.40;;;;;;;;;;5046771;28;20187;-70
2021/01/11 17:11:07;;;;;;;0.53;0.20;;;;;;;;;;5045745;28;20218;-70
2021/01/11 17:13:33;;;;;;;1.80;0.40;;;;;;;;;;5038902;28;20628;-69
2021/01/11 17:16:00;;;;;;;13.37;0.70;;;;;;;;;;5045463;28;20195;-69
2021/01/11 17:18:26;;;;;;;0.10;0.10;;;;;;;;;;5041406;28;20527;-70
2021/01/11 17:20:55;;;;;;;0.37;0.37;;;;;;;;;;5043884;28;20873;-70
2021/01/11 17:23:22;;;;;;;7.73;0.43;;;;;;;;;;5042685;28;20184;-70
2021/01/11 17:25:48;;;;;;;1.87;0.50;;;;;;;;;;5058209;28;20291;-70
2021/01/11 17:28:15;;;;;;;0.23;0.23;;;;;;;;;;5056407;28;20179;-69
2021/01/11 17:30:41;;;;;;;0.83;0.83;;;;;;;;;;5042700;28;20271;-69
2021/01/11 17:33:08;;;;;;;8.73;0.87;;;;;;;;;;5041437;28;20278;-69
2021/01/11 17:35:35;;;;;;;0.10;0.10;;;;;;;;;;5051177;28;20250;-69
2021/01/11 17:38:01;;;;;;;0.30;0.30;;;;;;;;;;5050385;28;20567;-69
2021/01/11 17:40:28;;;;;;;1.50;0.10;;;;;;;;;;5054895;28;20187;-69
2021/01/11 17:42:55;;;;;;;0.07;0.07;;;;;;;;;;5047654;28;20198;-69
2021/01/11 17:45:21;;;;;;;0.33;0.33;;;;;;;;;;5043385;28;20253;-68
2021/01/11 17:47:48;;;;;;;0.10;0.10;;;;;;;;;;5047591;28;20522;-69
2021/01/11 17:50:14;;;;;;;0.10;0.10;;;;;;;;;;5042401;28;20221;-66
2021/01/11 17:52:41;;;;;;;0.40;0.40;;;;;;;;;;5050059;28;20229;-66
2021/01/11 17:55:08;;;;;;;0.00;0.00;;;;;;;;;;5042982;28;20189;-66
2021/01/11 17:57:34;;;;;;;0.00;0.00;;;;;;;;;;5050738;28;20205;-68
2021/01/11 18:00:01;;;;;;;0.13;0.13;;;;;;;;;;5046726;28;20567;-67
2021/01/11 18:02:27;;;;;;;0.47;0.27;;;;;;;;;;5041804;28;20203;-66
2021/01/11 18:04:54;;;;;;;0.77;0.40;;;;;;;;;;5047354;28;20190;-66
2021/01/11 18:07:28;;;;;;;0.00;0.00;;;;;;;;;;5045252;28;20185;-66
2021/01/11 18:09:55;;;;;;;1.03;0.30;;;;;;;;;;5034987;28;20238;-66
2021/01/11 18:12:23;;;;;;;0.00;0.00;;;;;;;;;;5042047;28;20646;-66
2021/01/11 18:14:49;;;;;;;0.67;0.33;;;;;;;;;;5046134;28;20266;-66
2021/01/11 18:17:16;;;;;;;0.40;0.37;;;;;;;;;;5045538;28;20203;-67
2021/01/11 18:19:42;;;;;;;0.10;0.10;;;;;;;;;;5042799;28;20660;-66
2021/01/11 18:22:09;;;;;;;0.10;0.10;;;;;;;;;;5045365;28;20486;-66
2021/01/11 18:24:38;;;;;;;1.97;0.57;;;;;;;;;;5042781;28;20195;-66
2021/01/11 18:27:04;;;;;;;3.90;0.47;;;;;;;;;;5044450;28;20334;-66
2021/01/11 18:29:31;;;;;;;0.10;0.10;;;;;;;;;;5044030;28;20183;-66
2021/01/11 18:32:01;;;;;;;0.40;0.40;;;;;;;;;;5045989;28;20188;-66
2021/01/11 18:34:28;;;;;;;0.10;0.10;;;;;;;;;;5040983;28;20261;-66
2021/01/11 18:36:57;;;;;;;0.10;0.10;;;;;;;;;;5042375;28;20179;-66
2021/01/11 18:39:24;;;;;;;0.13;0.13;;;;;;;;;;5047659;28;20224;-67
2021/01/11 18:41:51;;;;;;;0.10;0.10;;;;;;;;;;5043301;28;20758;-66
2021/01/11 18:44:18;;;;;;;2.20;0.10;;;;;;;;;;5041735;28;20215;-66
2021/01/11 18:46:48;;;;;;;0.10;0.10;;;;;;;;;;5041914;28;20211;-66
2021/01/11 18:49:14;;;;;;;0.10;0.10;;;;;;;;;;5042253;28;20242;-65
2021/01/11 18:51:44;;;;;;;0.10;0.10;;;;;;;;;;5044582;28;20191;-65
2021/01/11 18:54:10;;;;;;;0.10;0.10;;;;;;;;;;5041845;28;21141;-65
2021/01/11 18:56:37;;;;;;;0.13;0.13;;;;;;;;;;5047916;28;20661;-66
2021/01/11 18:59:04;;;;;;;0.10;0.10;;;;;;;;;;5047809;28;20242;-66
2021/01/11 19:01:31;;;;;;;0.10;0.10;;;;;;;;;;5047273;28;21076;-65
2021/01/11 19:03:57;;;;;;;0.10;0.10;;;;;;;;;;5045384;28;20197;-65
2021/01/11 19:06:24;;;;;;;0.10;0.10;;;;;;;;;;5043688;28;20207;-65
2021/01/11 19:08:50;;;;;;;0.17;0.17;;;;;;;;;;5050286;28;20187;-65
2021/01/11 19:11:17;;;;;;;0.10;0.10;;;;;;;;;;5048599;28;20191;-65
2021/01/11 19:13:44;;;;;;;1.03;0.20;;;;;;;;;;5046327;28;20195;-66
2021/01/11 19:16:17;;;;;;;0.10;0.10;;;;;;;;;;5044391;28;20268;-65
2021/01/11 19:18:44;;;;;;;1.60;0.20;;;;;;;;;;5047087;28;20245;-65
2021/01/11 19:21:10;;;;;;;6.93;0.37;;;;;;;;;;5054496;28;20198;-65
2021/01/11 19:23:45;;;;;;;0.10;0.10;;;;;;;;;;5062848;28;20202;-65
2021/01/11 19:26:13;;;;;;;0.10;0.10;;;;;;;;;;5056948;28;20249;-65
2021/01/11 19:28:41;;;;;;;0.10;0.10;;;;;;;;;;5043754;28;20638;-66
2021/01/11 19:31:07;;;;;;;6.80;0.50;;;;;;;;;;5045821;28;20534;-65
2021/01/11 19:33:34;;;;;;;1.13;1.03;;;;;;;;;;5045356;28;20188;-66
2021/01/11 19:36:01;;;;;;;0.10;0.10;;;;;;;;;;5048693;28;20199;-65
2021/01/11 19:38:28;;;;;;;0.60;0.60;;;;;;;;;;5039722;28;20245;-66
2021/01/11 19:40:54;;;;;;;0.20;0.20;;;;;;;;;;5041703;28;20183;-65
2021/01/11 19:43:21;;;;;;;0.20;0.20;;;;;;;;;;5048437;28;20818;-65
2021/01/11 19:45:47;;;;;;;0.10;0.10;;;;;;;;;;5047853;28;20920;-65
2021/01/11 19:48:14;;;;;;;10.00;3.03;;;;;;;;;;5057855;28;20221;-65
2021/01/11 19:50:41;;;;;;;1.57;0.87;;;;;;;;;;5052784;28;20210;-66
2021/01/11 19:53:07;;;;;;;3.10;0.40;;;;;;;;;;5046267;28;20201;-65
2021/01/11 19:55:34;;;;;;;0.10;0.10;;;;;;;;;;5052134;28;20190;-65
2021/01/11 19:58:00;;;;;;;0.30;0.30;;;;;;;;;;5053667;28;20187;-65
2021/01/11 20:00:27;;;;;;;0.10;0.10;;;;;;;;;;5045105;28;20278;-66
2021/01/11 20:02:53;;;;;;;0.57;0.30;;;;;;;;;;5052282;28;20215;-65
2021/01/11 20:05:20;;;;;;;0.10;0.10;;;;;;;;;;5055611;28;20237;-65
2021/01/11 20:07:47;;;;;;;0.10;0.10;;;;;;;;;;5045880;28;21012;-65
2021/01/11 20:10:13;;;;;;;0.10;0.10;;;;;;;;;;5047512;28;20194;-66
2021/01/11 20:12:40;;;;;;;0.10;0.10;;;;;;;;;;5051818;28;20272;-66
2021/01/11 20:15:08;;;;;;;0.60;0.37;;;;;;;;;;5046912;28;20639;-66
2021/01/11 20:17:36;;;;;;;0.10;0.10;;;;;;;;;;5051005;28;20585;-65
2021/01/11 20:20:13;;;;;;;0.10;0.10;;;;;;;;;;5048179;28;20191;-65
2021/01/11 20:22:40;;;;;;;0.30;0.30;;;;;;;;;;5046013;28;20561;-65
2021/01/11 20:25:07;;;;;;;9.27;0.77;;;;;;;;;;5044800;28;20252;-66
2021/01/11 20:27:34;;;;;;;0.10;0.10;;;;;;;;;;5038013;28;20226;-66
2021/01/11 20:30:01;;;;;;;0.20;0.20;;;;;;;;;;5043106;28;20542;-66
2021/01/11 20:32:27;;;;;;;7.63;0.73;;;;;;;;;;5055442;22;20573;-61
2021/01/11 20:37:59;;;;;;;0.37;0.30;;;;;;;;;;5055804;28;20233;-60
2021/01/11 20:43:29;;;;;;;0.10;0.10;;;;;;;;;;5064611;28;20695;-60
2021/01/11 20:48:59;;;;;;;0.20;0.20;;;;;;;;;;5055479;28;20186;-60
2021/01/11 20:54:29;;;;;;;0.00;0.00;;;;;;;;;;5073266;28;20201;-61
2021/01/11 21:00:00;;;;;;;2.27;0.83;;;;;;;;;;5074759;28;20212;-62
2021/01/11 21:05:30;;;;;;;0.10;0.10;;;;;;;;;;5035337;28;20669;-62
2021/01/11 21:11:00;;;;;;;0.30;0.30;;;;;;;;;;5069374;28;20215;-63
2021/01/11 21:16:30;;;;;;;0.07;0.07;;;;;;;;;;5063894;28;20301;-62
2021/01/11 21:22:00;;;;;;;0.20;0.20;;;;;;;;;;5066258;28;20254;-61
2021/01/11 21:27:30;;;;;;;0.30;0.13;;;;;;;;;;5056100;28;20205;-61
2021/01/11 21:33:00;;;;;;;0.00;0.00;;;;;;;;;;5048348;28;20226;-60
2021/01/11 21:38:30;;;;;;;1.07;0.80;;;;;;;;;;5054616;28;20189;-59
2021/01/11 21:44:00;;;;;;;0.87;0.87;;;;;;;;;;5053580;28;20193;-60
2021/01/11 21:49:30;;;;;;;0.00;0.00;;;;;;;;;;5059138;28;20183;-60
2021/01/11 21:55:00;;;;;;;1.27;0.53;;;;;;;;;;5060097;28;20677;-61
2021/01/11 22:00:31;;;;;;;0.00;0.00;;;;;;;;;;5060608;28;20270;-61
2021/01/11 22:06:01;;;;;;;0.07;0.07;;;;;;;;;;5059996;28;20221;-60
2021/01/11 22:11:34;;;;;;;0.00;0.00;;;;;;;;;;5060104;28;20212;-61
2021/01/11 22:17:05;;;;;;;0.00;0.00;;;;;;;;;;5060945;28;20727;-61
2021/01/11 22:22:36;;;;;;;0.10;0.10;;;;;;;;;;5059571;28;20677;-61
2021/01/11 22:28:06;;;;;;;0.00;0.00;;;;;;;;;;5038460;28;20656;-61
2021/01/11 22:33:36;;;;;;;0.00;0.00;;;;;;;;;;5049926;28;20241;-62
2021/01/11 22:39:06;;;;;;;0.00;0.00;;;;;;;;;;5057730;28;20236;-62
2021/01/11 22:44:37;;;;;;;0.00;0.00;;;;;;;;;;5056538;28;20204;-61
2021/01/11 22:50:08;;;;;;;0.67;0.57;;;;;;;;;;5060802;28;20236;-62
2021/01/11 22:55:48;;;;;;;0.00;0.00;;;;;;;;;;5061454;28;20190;-62
2021/01/11 23:01:18;;;;;;;0.00;0.00;;;;;;;;;;5061696;28;20194;-62
2021/01/11 23:06:48;;;;;;;0.10;0.10;;;;;;;;;;5060344;28;20691;-62
2021/01/11 23:12:18;;;;;;;0.07;0.07;;;;;;;;;;5060903;28;20224;-62
2021/01/11 23:17:49;;;;;;;0.00;0.00;;;;;;;;;;5060871;28;20273;-62
2021/01/11 23:23:20;;;;;;;0.00;0.00;;;;;;;;;;5060794;28;20695;-63
2021/01/11 23:28:51;;;;;;;0.50;0.50;;;;;;;;;;5060574;28;20237;-62
2021/01/11 23:34:21;;;;;;;0.00;0.00;;;;;;;;;;5059691;28;20281;-63
2021/01/11 23:39:51;;;;;;;0.23;0.20;;;;;;;;;;5059688;28;20189;-62
2021/01/11 23:48:12;;;;;;;0.00;0.00;;;;;;;;;;5058103;28;20584;-61
2021/01/11 23:53:42;;;;;;;0.00;0.00;;;;;;;;;;5057751;28;20644;-63
2021/01/11 23:59:13;;;;;;;0.07;0.07;;;;;;;;;;5057348;28;20592;-62
